Time;durP1;ratioP1;P1;durP2;ratioP2;P2;SDS_P1;SDS_P2;PMS_P1;PMS_P2;Temp;Humidity;BMP_temperature;BMP_pressure;BME280_temperature;BME280_humidity;BME280_pressure;Samples;Min_cycle;Max_cycle;Signal;HPM_P1;HPM_P2
2021/03/18 00:00:26;;;;;;;6.97;4.65;;;5.20;99.90;;;;;;5005050;28;20070;-71
2021/03/18 00:02:51;;;;;;;8.38;5.38;;;5.20;99.90;;;;;;4997530;28;20041;-71
2021/03/18 00:05:17;;;;;;;10.23;5.72;;;5.10;99.90;;;;;;5002386;28;20025;-71
2021/03/18 00:07:43;;;;;;;11.40;6.95;;;5.10;99.90;;;;;;5002925;28;20619;-71
2021/03/18 00:10:09;;;;;;;11.23;5.72;;;5.10;99.90;;;;;;4999538;28;20612;-71
2021/03/18 00:12:35;;;;;;;13.25;7.60;;;5.00;99.90;;;;;;5007248;28;20045;-71
2021/03/18 00:15:07;;;;;;;11.75;6.35;;;5.00;99.90;;;;;;5002486;28;20383;-71
2021/03/18 00:17:33;;;;;;;11.02;7.13;;;5.00;99.90;;;;;;5004485;28;20052;-71
2021/03/18 00:20:00;;;;;;;10.35;6.18;;;5.00;99.90;;;;;;5005007;28;20018;-71
2021/03/18 00:22:34;;;;;;;10.50;6.25;;;4.90;99.90;;;;;;5010352;28;20041;-71
2021/03/18 00:25:00;;;;;;;9.57;5.88;;;5.00;99.90;;;;;;5002299;28;20562;-71
2021/03/18 00:27:29;;;;;;;11.70;6.70;;;4.90;99.90;;;;;;5007578;28;20075;-71
2021/03/18 00:29:55;;;;;;;9.60;6.38;;;4.80;99.90;;;;;;5002380;28;20065;-71
2021/03/18 00:32:21;;;;;;;10.38;6.38;;;4.80;99.90;;;;;;5000523;28;20053;-71
2021/03/18 00:34:48;;;;;;;12.45;6.75;;;4.70;99.90;;;;;;5004745;28;20027;-71
2021/03/18 00:37:14;;;;;;;10.32;5.90;;;4.70;99.90;;;;;;5009762;28;20030;-71
2021/03/18 00:39:40;;;;;;;13.70;6.25;;;4.80;99.90;;;;;;5003965;28;20854;-71
2021/03/18 00:42:06;;;;;;;8.80;5.72;;;4.80;99.90;;;;;;5033576;28;20030;-71
2021/03/18 00:44:34;;;;;;;9.95;5.25;;;4.70;99.90;;;;;;5004941;28;20073;-71
2021/03/18 00:47:00;;;;;;;13.18;5.65;;;4.70;99.90;;;;;;4990234;28;20054;-71
2021/03/18 00:49:25;;;;;;;9.73;5.82;;;4.70;99.90;;;;;;5003181;28;20539;-71
2021/03/18 00:51:51;;;;;;;8.60;5.07;;;4.70;99.90;;;;;;5055854;28;20129;-71
2021/03/18 00:54:17;;;;;;;6.78;4.80;;;4.60;99.90;;;;;;5003823;28;20518;-71
2021/03/18 00:56:43;;;;;;;11.50;6.07;;;4.60;99.90;;;;;;5010135;28;20398;-71
2021/03/18 00:59:09;;;;;;;12.25;5.55;;;4.60;99.90;;;;;;5021722;28;20050;-71
2021/03/18 01:01:35;;;;;;;11.35;5.85;;;4.50;99.90;;;;;;5007144;28;20030;-71
2021/03/18 01:04:01;;;;;;;9.75;5.18;;;4.60;99.90;;;;;;5002774;28;20289;-71
2021/03/18 01:06:29;;;;;;;10.73;4.95;;;4.50;99.90;;;;;;5004974;28;20053;-71
2021/03/18 01:08:56;;;;;;;8.90;5.20;;;4.60;99.90;;;;;;5008392;28;20037;-71
2021/03/18 01:11:25;;;;;;;13.32;5.88;;;4.50;99.90;;;;;;5007654;28;20030;-71
2021/03/18 01:13:57;;;;;;;9.18;5.50;;;4.60;99.90;;;;;;4997884;28;20072;-71
2021/03/18 01:16:25;;;;;;;9.60;5.60;;;4.60;99.90;;;;;;5006868;28;20489;-71
2021/03/18 01:18:55;;;;;;;10.43;5.55;;;4.60;99.90;;;;;;5003563;28;20121;-72
2021/03/18 01:21:24;;;;;;;10.82;5.00;;;4.60;99.90;;;;;;4999152;28;20022;-71
2021/03/18 01:23:50;;;;;;;9.75;5.28;;;4.60;99.90;;;;;;5010494;28;20022;-71
2021/03/18 01:26:16;;;;;;;14.75;6.53;;;4.60;99.90;;;;;;5000213;28;20038;-71
2021/03/18 01:28:42;;;;;;;11.10;6.28;;;4.60;99.90;;;;;;5006571;28;20034;-71
2021/03/18 01:31:10;;;;;;;8.38;6.22;;;4.50;99.90;;;;;;5007519;28;20398;-71
2021/03/18 01:33:39;;;;;;;9.38;6.18;;;4.50;99.90;;;;;;5000165;28;20026;-71
2021/03/18 01:36:12;;;;;;;12.48;6.07;;;4.50;99.90;;;;;;5034811;28;20101;-71
2021/03/18 01:38:42;;;;;;;10.38;5.80;;;4.50;99.90;;;;;;5010534;28;20473;-71
2021/03/18 01:41:08;;;;;;;11.27;6.35;;;4.50;99.90;;;;;;4999378;28;20062;-71
2021/03/18 01:43:34;;;;;;;13.95;6.80;;;4.40;99.90;;;;;;5030086;28;20059;-71
2021/03/18 01:46:00;;;;;;;12.93;6.28;;;4.30;99.90;;;;;;5005527;28;20057;-71
2021/03/18 01:48:26;;;;;;;11.05;6.38;;;4.30;99.90;;;;;;5003249;28;20462;-71
2021/03/18 01:50:52;;;;;;;10.52;5.75;;;4.20;99.90;;;;;;5030293;28;20038;-72
2021/03/18 01:53:22;;;;;;;12.30;5.70;;;4.10;99.90;;;;;;5004841;28;20402;-71
2021/03/18 01:55:50;;;;;;;10.63;5.70;;;4.20;99.90;;;;;;5004557;28;20509;-71
2021/03/18 01:58:17;;;;;;;10.60;5.85;;;4.20;99.90;;;;;;4999056;28;20057;-71
2021/03/18 02:00:44;;;;;;;10.60;5.55;;;4.20;99.90;;;;;;5004085;28;20029;-71
2021/03/18 02:03:10;;;;;;;12.85;5.60;;;4.10;99.90;;;;;;5006134;28;20109;-72
2021/03/18 02:05:37;;;;;;;13.40;5.60;;;4.20;99.90;;;;;;5011274;28;20114;-71
2021/03/18 02:08:03;;;;;;;13.13;5.25;;;4.20;99.90;;;;;;5001138;28;20033;-71
2021/03/18 02:10:32;;;;;;;11.70;5.47;;;4.20;99.90;;;;;;5002790;28;20487;-71
2021/03/18 02:12:58;;;;;;;8.60;5.80;;;4.20;99.90;;;;;;4998393;28;20030;-71
2021/03/18 02:15:43;;;;;;;11.70;5.50;;;4.20;99.90;;;;;;5005609;28;20382;-71
2021/03/18 02:18:27;;;;;;;15.40;6.05;;;4.20;99.90;;;;;;5002581;28;20022;-71
2021/03/18 02:21:28;;;;;;;13.65;6.07;;;4.20;99.90;;;;;;5003460;28;20036;-71
2021/03/18 02:24:13;;;;;;;15.77;6.07;;;4.20;99.90;;;;;;5005277;28;20410;-71
2021/03/18 02:26:50;;;;;;;15.35;5.45;;;4.20;99.90;;;;;;5000831;28;20539;-71
2021/03/18 02:29:41;;;;;;;8.85;4.50;;;4.20;99.90;;;;;;5003851;28;20116;-71
2021/03/18 02:32:36;;;;;;;13.05;5.10;;;4.10;99.90;;;;;;5001376;28;20025;-72
2021/03/18 02:35:26;;;;;;;13.10;5.28;;;4.20;99.90;;;;;;5007535;28;20379;-71
2021/03/18 02:38:19;;;;;;;15.07;5.22;;;4.10;99.90;;;;;;5001637;28;20025;-71
2021/03/18 02:40:50;;;;;;;8.77;5.03;;;4.10;99.90;;;;;;4998794;28;20406;-71
2021/03/18 02:43:19;;;;;;;13.02;5.20;;;4.00;99.90;;;;;;5005995;28;20018;-72
2021/03/18 02:45:53;;;;;;;21.52;5.82;;;4.00;99.90;;;;;;5007202;28;20030;-71
2021/03/18 02:48:26;;;;;;;10.25;5.32;;;4.00;99.90;;;;;;4998639;28;20044;-71
2021/03/18 02:50:53;;;;;;;15.27;5.82;;;4.10;99.90;;;;;;5006488;28;20390;-71
2021/03/18 02:53:20;;;;;;;11.05;5.95;;;4.10;99.90;;;;;;5012932;28;20108;-72
2021/03/18 02:55:48;;;;;;;12.40;5.43;;;4.10;99.90;;;;;;4998445;28;20050;-71
2021/03/18 02:58:19;;;;;;;13.60;5.85;;;4.20;99.90;;;;;;5001939;28;20049;-71
2021/03/18 03:00:47;;;;;;;11.10;5.07;;;4.10;99.90;;;;;;5002174;28;20049;-71
2021/03/18 03:03:13;;;;;;;15.85;5.53;;;4.10;99.90;;;;;;5027545;28;20475;-72
2021/03/18 03:05:39;;;;;;;11.05;4.97;;;4.00;99.90;;;;;;5000990;28;20026;-71
2021/03/18 03:08:09;;;;;;;15.45;5.05;;;4.00;99.90;;;;;;4999122;28;20038;-72
2021/03/18 03:10:36;;;;;;;16.02;5.50;;;4.00;99.90;;;;;;4997155;28;20054;-71
2021/03/18 03:13:03;;;;;;;14.48;5.63;;;3.90;99.90;;;;;;5006972;28;20479;-72
2021/03/18 03:15:31;;;;;;;16.75;5.38;;;3.90;99.90;;;;;;5002193;28;20088;-71
2021/03/18 03:17:59;;;;;;;12.60;5.25;;;3.90;99.90;;;;;;4994713;28;20458;-72
2021/03/18 03:20:26;;;;;;;12.45;5.70;;;3.80;99.90;;;;;;4999847;28;20057;-72
2021/03/18 03:22:54;;;;;;;14.55;5.47;;;3.80;99.90;;;;;;4999497;28;20116;-72
2021/03/18 03:25:20;;;;;;;15.30;5.65;;;3.80;99.90;;;;;;4999213;28;20014;-72
2021/03/18 03:27:47;;;;;;;16.77;5.25;;;3.70;99.90;;;;;;5004445;28;20034;-72
2021/03/18 03:30:15;;;;;;;11.68;5.30;;;3.80;99.90;;;;;;5000879;28;20022;-72
2021/03/18 03:32:45;;;;;;;14.85;5.40;;;3.80;99.90;;;;;;4997032;28;20089;-72
2021/03/18 03:35:11;;;;;;;22.00;6.30;;;3.80;99.90;;;;;;5002654;28;20076;-72
2021/03/18 03:37:39;;;;;;;11.75;5.20;;;3.80;99.90;;;;;;4997581;28;20030;-72
2021/03/18 03:40:08;;;;;;;13.00;6.78;;;3.80;99.90;;;;;;4998126;28;20057;-72
2021/03/18 03:42:34;;;;;;;8.57;5.32;;;3.70;99.90;;;;;;5000175;28;20038;-72
2021/03/18 03:45:00;;;;;;;18.83;6.57;;;3.70;99.90;;;;;;4999802;28;20026;-72
2021/03/18 03:47:26;;;;;;;16.83;5.40;;;3.70;99.90;;;;;;5010044;28;20533;-72
2021/03/18 03:49:52;;;;;;;10.82;5.70;;;3.70;99.90;;;;;;5005131;28;20045;-72
2021/03/18 03:52:37;;;;;;;13.80;5.10;;;3.60;99.90;;;;;;5002463;28;20022;-72
2021/03/18 03:55:09;;;;;;;16.20;5.75;;;3.60;99.90;;;;;;4999434;28;20022;-72
2021/03/18 03:57:43;;;;;;;12.50;5.07;;;3.60;99.90;;;;;;5001220;28;20038;-72
2021/03/18 04:00:09;;;;;;;16.77;5.20;;;3.60;99.90;;;;;;5005499;28;20105;-72
2021/03/18 04:02:36;;;;;;;9.98;4.90;;;3.70;99.90;;;;;;4996902;28;20026;-72
2021/03/18 04:05:05;;;;;;;18.83;5.10;;;3.70;99.90;;;;;;4997948;28;20045;-72
2021/03/18 04:07:36;;;;;;;11.82;4.85;;;3.70;99.90;;;;;;5005929;28;20031;-72
2021/03/18 04:10:03;;;;;;;11.48;4.50;;;3.70;99.90;;;;;;4996805;28;20494;-72
2021/03/18 04:12:33;;;;;;;12.63;4.60;;;3.70;99.90;;;;;;4999209;28;20018;-72
2021/03/18 04:15:09;;;;;;;12.93;5.00;;;3.80;99.90;;;;;;5000282;28;20026;-71
2021/03/18 04:17:40;;;;;;;16.08;5.47;;;3.80;99.90;;;;;;5004471;28;20033;-72
2021/03/18 04:20:10;;;;;;;11.82;5.10;;;3.70;99.90;;;;;;5001668;28;20459;-72
2021/03/18 04:22:37;;;;;;;20.80;5.60;;;3.70;99.90;;;;;;5005536;28;20052;-72
2021/03/18 04:25:05;;;;;;;14.70;5.65;;;3.80;99.90;;;;;;4997618;28;20057;-72
2021/03/18 04:27:31;;;;;;;12.50;5.03;;;3.60;99.90;;;;;;4994592;28;20145;-72
2021/03/18 04:29:59;;;;;;;14.15;4.82;;;3.60;99.90;;;;;;4999519;28;20132;-71
2021/03/18 04:32:26;;;;;;;18.60;6.00;;;3.60;99.90;;;;;;4995635;28;20026;-72
2021/03/18 04:34:53;;;;;;;11.95;4.90;;;3.60;99.90;;;;;;5002222;28;20029;-72
2021/03/18 04:37:20;;;;;;;18.10;5.15;;;3.60;99.90;;;;;;5006178;28;20034;-71
2021/03/18 04:39:46;;;;;;;11.50;4.57;;;3.60;99.90;;;;;;5005053;28;20111;-72
2021/03/18 04:42:13;;;;;;;12.30;5.43;;;3.50;99.90;;;;;;4996769;28;20474;-72
2021/03/18 04:44:44;;;;;;;13.88;5.30;;;3.50;99.90;;;;;;4998602;28;20022;-71
2021/03/18 04:47:11;;;;;;;16.45;6.03;;;3.40;99.90;;;;;;5002768;28;20026;-72
2021/03/18 04:49:39;;;;;;;13.77;5.78;;;3.40;99.90;;;;;;5003261;28;20030;-72
2021/03/18 04:52:04;;;;;;;18.15;5.32;;;3.50;99.90;;;;;;5004015;28;20036;-72
2021/03/18 04:54:30;;;;;;;14.48;5.18;;;3.50;99.90;;;;;;4998385;28;20026;-72
2021/03/18 04:56:57;;;;;;;14.80;5.65;;;3.40;99.90;;;;;;5008645;28;20498;-72
2021/03/18 04:59:24;;;;;;;12.75;5.05;;;3.40;99.90;;;;;;5003391;28;20031;-72
2021/03/18 05:01:52;;;;;;;17.88;5.78;;;3.50;99.90;;;;;;4998540;28;20026;-72
2021/03/18 05:04:20;;;;;;;13.02;5.40;;;3.40;99.90;;;;;;4998851;28;20027;-72
2021/03/18 05:06:54;;;;;;;14.82;5.97;;;3.40;99.90;;;;;;5035580;28;20084;-72
2021/03/18 05:09:24;;;;;;;16.48;6.65;;;3.30;99.90;;;;;;5010731;28;20030;-72
2021/03/18 05:11:52;;;;;;;14.10;5.75;;;3.30;99.90;;;;;;5008684;28;20142;-72
2021/03/18 05:14:19;;;;;;;10.88;5.75;;;3.30;99.90;;;;;;5002448;28;20030;-72
2021/03/18 05:16:45;;;;;;;12.95;5.53;;;3.40;99.90;;;;;;5005006;28;20030;-71
2021/03/18 05:19:12;;;;;;;13.70;5.82;;;3.30;99.90;;;;;;5004297;28;20089;-72
2021/03/18 05:21:39;;;;;;;11.93;5.20;;;3.30;99.90;;;;;;5008571;28;20442;-72
2021/03/18 05:24:11;;;;;;;13.75;5.53;;;3.30;99.90;;;;;;5003775;28;20025;-72
2021/03/18 05:26:38;;;;;;;12.57;6.07;;;3.30;99.90;;;;;;5002181;28;20068;-71
2021/03/18 05:29:05;;;;;;;17.92;6.47;;;3.30;99.90;;;;;;5002220;28;20042;-71
2021/03/18 05:31:31;;;;;;;13.00;5.75;;;3.40;99.90;;;;;;5002688;28;20026;-72
2021/03/18 05:33:56;;;;;;;11.85;5.68;;;3.30;99.90;;;;;;5008200;28;20017;-72
2021/03/18 05:36:22;;;;;;;13.18;6.10;;;3.30;99.90;;;;;;5001637;28;20093;-72
2021/03/18 05:38:48;;;;;;;15.60;6.18;;;3.30;99.90;;;;;;4995989;28;20036;-72
2021/03/18 05:41:14;;;;;;;16.20;6.57;;;3.30;99.90;;;;;;5003356;28;20056;-72
2021/03/18 05:43:40;;;;;;;17.60;6.20;;;3.30;99.90;;;;;;5003562;28;20026;-72
2021/03/18 05:46:07;;;;;;;19.85;6.53;;;3.30;99.90;;;;;;5001783;28;20068;-72
2021/03/18 05:48:34;;;;;;;17.65;6.53;;;3.30;99.90;;;;;;5002606;28;20394;-72
2021/03/18 05:50:59;;;;;;;13.07;6.00;;;3.40;99.90;;;;;;4999318;28;20573;-72
2021/03/18 05:53:26;;;;;;;17.10;6.32;;;3.40;99.90;;;;;;5006900;28;20075;-72
2021/03/18 05:55:53;;;;;;;12.82;6.13;;;3.40;99.90;;;;;;4997303;28;20061;-71
2021/03/18 05:58:23;;;;;;;11.63;4.53;;;3.40;99.90;;;;;;4998749;28;20046;-72
2021/03/18 06:00:50;;;;;;;17.98;5.72;;;3.50;99.90;;;;;;4996364;28;20053;-72
2021/03/18 06:03:17;;;;;;;15.48;6.60;;;3.60;99.90;;;;;;5001542;28;20084;-72
2021/03/18 06:05:44;;;;;;;24.10;7.07;;;3.60;99.90;;;;;;4997521;28;20054;-72
2021/03/18 06:08:09;;;;;;;18.02;7.40;;;3.50;99.90;;;;;;4995658;28;20119;-71
2021/03/18 06:10:35;;;;;;;17.38;6.63;;;3.50;99.90;;;;;;5005001;28;20073;-71
2021/03/18 06:13:01;;;;;;;16.95;7.28;;;3.60;99.90;;;;;;4999422;28;20046;-71
2021/03/18 06:15:27;;;;;;;17.30;6.95;;;3.60;99.90;;;;;;5000563;28;20030;-72
2021/03/18 06:17:54;;;;;;;19.40;7.63;;;3.50;99.90;;;;;;5000772;28;20026;-72
2021/03/18 06:20:26;;;;;;;19.73;7.30;;;3.60;99.90;;;;;;5008620;28;20081;-72
2021/03/18 06:22:53;;;;;;;16.23;7.05;;;3.60;99.90;;;;;;5006618;28;20057;-72
2021/03/18 06:25:34;;;;;;;23.38;9.05;;;3.60;99.90;;;;;;5004452;28;20022;-71
2021/03/18 06:28:19;;;;;;;21.67;7.53;;;3.60;99.90;;;;;;5003352;28;20044;-72
2021/03/18 06:31:14;;;;;;;17.85;7.80;;;3.60;99.90;;;;;;5005145;28;20029;-71
2021/03/18 06:33:48;;;;;;;16.83;8.25;;;3.70;99.90;;;;;;4998498;28;20096;-72
2021/03/18 06:36:31;;;;;;;20.52;7.80;;;3.70;99.90;;;;;;5007995;28;20427;-72
2021/03/18 06:39:07;;;;;;;19.10;7.93;;;3.70;99.90;;;;;;5009766;28;20049;-72
2021/03/18 06:41:38;;;;;;;26.42;7.85;;;3.70;99.90;;;;;;4997279;28;20060;-72
2021/03/18 06:44:05;;;;;;;24.55;8.43;;;3.70;99.90;;;;;;4999270;28;20562;-71
2021/03/18 06:46:31;;;;;;;20.45;8.65;;;3.80;99.90;;;;;;5005286;28;20734;-72
2021/03/18 06:49:10;;;;;;;27.00;8.98;;;3.80;99.90;;;;;;5003150;28;20034;-71
2021/03/18 06:51:36;;;;;;;18.55;8.48;;;3.80;99.90;;;;;;4998236;28;20026;-72
2021/03/18 06:54:01;;;;;;;22.00;8.30;;;3.90;99.90;;;;;;5000677;28;20100;-72
2021/03/18 06:56:32;;;;;;;18.75;8.70;;;3.90;99.90;;;;;;4998693;28;20026;-71
2021/03/18 06:58:59;;;;;;;19.30;8.63;;;3.90;99.90;;;;;;5002957;28;20089;-72
2021/03/18 07:01:27;;;;;;;22.13;9.43;;;3.90;99.90;;;;;;5002174;28;20097;-72
2021/03/18 07:04:02;;;;;;;26.50;9.25;;;4.00;99.90;;;;;;5000078;28;20034;-72
2021/03/18 07:06:33;;;;;;;31.27;10.35;;;4.00;99.90;;;;;;4999721;28;20365;-72
2021/03/18 07:09:15;;;;;;;25.58;9.82;;;4.10;99.90;;;;;;5008220;28;20041;-72
2021/03/18 07:11:44;;;;;;;23.10;11.02;;;4.10;99.90;;;;;;5001640;28;20109;-72
2021/03/18 07:14:13;;;;;;;22.60;9.85;;;4.10;99.90;;;;;;5006333;28;20118;-72
2021/03/18 07:16:45;;;;;;;25.10;10.15;;;4.20;99.90;;;;;;5007090;28;20459;-72
2021/03/18 07:19:27;;;;;;;25.48;9.93;;;4.20;99.90;;;;;;5004213;28;20023;-72
2021/03/18 07:21:53;;;;;;;20.73;10.02;;;4.30;99.90;;;;;;4999653;28;20022;-72
2021/03/18 07:24:37;;;;;;;25.17;9.07;;;4.30;99.90;;;;;;5006212;28;20079;-72
2021/03/18 07:27:13;;;;;;;26.80;10.75;;;4.30;99.90;;;;;;4998243;28;20022;-72
2021/03/18 07:29:44;;;;;;;26.05;10.40;;;4.30;99.90;;;;;;4999123;28;20038;-72
2021/03/18 07:32:13;;;;;;;28.17;10.38;;;4.40;99.90;;;;;;5032551;28;20018;-72
2021/03/18 07:34:43;;;;;;;30.55;10.77;;;4.40;99.90;;;;;;5001866;28;20034;-72
2021/03/18 07:37:10;;;;;;;26.92;11.15;;;4.40;99.90;;;;;;5000936;28;20091;-71
2021/03/18 07:39:41;;;;;;;25.92;11.32;;;4.40;99.90;;;;;;5030224;28;20022;-71
2021/03/18 07:42:09;;;;;;;35.17;13.57;;;4.40;99.90;;;;;;5000600;28;20083;-71
2021/03/18 07:44:36;;;;;;;29.83;11.40;;;4.50;99.90;;;;;;5004503;28;20017;-71
2021/03/18 07:47:03;;;;;;;31.15;12.65;;;4.50;99.90;;;;;;5001218;28;20105;-71
2021/03/18 07:49:39;;;;;;;28.42;13.43;;;4.50;99.90;;;;;;5003790;28;20042;-71
2021/03/18 07:52:06;;;;;;;27.63;12.45;;;4.60;99.90;;;;;;4995508;28;20022;-71
2021/03/18 07:54:33;;;;;;;30.00;12.50;;;4.70;99.90;;;;;;5000342;28;20038;-71
2021/03/18 07:56:59;;;;;;;32.20;13.57;;;4.80;99.90;;;;;;5001772;28;20026;-71
2021/03/18 07:59:32;;;;;;;31.08;13.20;;;4.90;99.90;;;;;;4999552;28;20039;-71
2021/03/18 08:02:17;;;;;;;36.30;13.07;;;4.90;99.90;;;;;;5006015;28;20381;-71
2021/03/18 08:04:46;;;;;;;24.80;13.23;;;5.10;99.90;;;;;;5001136;28;20506;-71
2021/03/18 08:07:32;;;;;;;32.45;13.77;;;5.10;99.90;;;;;;4997453;28;20033;-71
2021/03/18 08:09:58;;;;;;;27.10;13.25;;;5.20;99.90;;;;;;5002069;28;20037;-71
2021/03/18 08:12:52;;;;;;;28.00;15.02;;;5.20;99.90;;;;;;5006564;28;20026;-71
2021/03/18 08:15:31;;;;;;;31.25;13.95;;;5.20;99.90;;;;;;5025330;28;20026;-70
2021/03/18 08:18:17;;;;;;;29.98;13.25;;;5.20;99.90;;;;;;4997945;28;20398;-71
2021/03/18 08:20:42;;;;;;;28.15;13.70;;;5.20;99.90;;;;;;4997605;28;20049;-70
2021/03/18 08:23:26;;;;;;;27.08;13.02;;;5.30;99.90;;;;;;4999368;28;20398;-70
2021/03/18 08:25:52;;;;;;;27.27;11.43;;;5.40;99.90;;;;;;5032048;28;20022;-70
2021/03/18 08:28:41;;;;;;;30.25;12.63;;;5.30;99.90;;;;;;4998669;28;20050;-70
2021/03/18 08:31:12;;;;;;;28.70;11.75;;;5.40;99.90;;;;;;5002374;28;20520;-71
2021/03/18 08:33:49;;;;;;;22.90;11.88;;;5.50;99.90;;;;;;4990336;28;20057;-70
2021/03/18 08:36:27;;;;;;;28.00;11.50;;;5.50;99.90;;;;;;5001536;28;20064;-70
2021/03/18 08:39:00;;;;;;;29.15;10.27;;;5.60;99.90;;;;;;5000631;28;20100;-70
2021/03/18 08:41:37;;;;;;;26.70;10.90;;;5.60;99.90;;;;;;5038748;28;20088;-71
2021/03/18 08:44:29;;;;;;;35.45;11.70;;;5.70;99.90;;;;;;5000988;28;20084;-71
2021/03/18 08:47:00;;;;;;;21.63;10.77;;;5.80;99.90;;;;;;5000849;28;20121;-71
2021/03/18 08:49:32;;;;;;;24.70;9.38;;;5.80;99.90;;;;;;5005170;28;20049;-71
2021/03/18 08:52:03;;;;;;;24.00;7.47;;;5.80;99.90;;;;;;5006131;28;20498;-71
2021/03/18 08:54:41;;;;;;;26.92;8.68;;;5.80;99.90;;;;;;4998339;28;20060;-70
2021/03/18 08:57:21;;;;;;;25.05;8.93;;;5.80;99.90;;;;;;5005056;28;20090;-71
2021/03/18 08:59:53;;;;;;;26.83;9.23;;;5.80;99.90;;;;;;5001243;28;20057;-70
2021/03/18 09:02:28;;;;;;;25.10;7.65;;;5.90;99.90;;;;;;5004618;28;20018;-70
2021/03/18 09:04:54;;;;;;;19.45;7.05;;;6.00;99.90;;;;;;5010139;28;20034;-71
2021/03/18 09:07:23;;;;;;;24.83;7.22;;;6.00;99.90;;;;;;5011459;28;20026;-71
2021/03/18 09:10:09;;;;;;;21.25;6.78;;;6.10;99.90;;;;;;5007260;28;20080;-71
2021/03/18 09:12:45;;;;;;;18.17;6.28;;;6.20;99.90;;;;;;5004530;28;20014;-71
2021/03/18 09:15:13;;;;;;;16.88;6.00;;;6.30;99.90;;;;;;5005554;28;20112;-70
2021/03/18 09:17:39;;;;;;;14.05;5.40;;;6.40;99.90;;;;;;5009384;28;20394;-71
2021/03/18 09:20:06;;;;;;;17.33;5.53;;;6.40;99.90;;;;;;5013626;28;20025;-70
2021/03/18 09:22:32;;;;;;;14.90;5.47;;;6.30;99.90;;;;;;5038213;28;20041;-70
2021/03/18 09:24:58;;;;;;;15.35;5.72;;;6.30;99.90;;;;;;5000708;28;20101;-71
2021/03/18 09:27:23;;;;;;;16.98;5.75;;;6.30;99.90;;;;;;4998714;28;20042;-71
2021/03/18 09:29:49;;;;;;;15.65;5.68;;;6.20;99.90;;;;;;5000614;28;20038;-71
2021/03/18 09:32:15;;;;;;;15.38;5.65;;;6.30;99.90;;;;;;5001468;28;20106;-71
2021/03/18 09:34:46;;;;;;;16.30;4.53;;;6.30;99.90;;;;;;5031473;28;20061;-71
2021/03/18 09:37:12;;;;;;;14.80;4.80;;;6.30;99.90;;;;;;5002668;28;20033;-70
2021/03/18 09:39:46;;;;;;;9.93;4.00;;;6.30;99.90;;;;;;5008173;28;20206;-71
2021/03/18 09:42:15;;;;;;;11.95;4.43;;;6.30;99.90;;;;;;5007911;28;20026;-71
2021/03/18 09:44:42;;;;;;;18.02;4.57;;;6.50;99.90;;;;;;5008925;28;20026;-71
2021/03/18 09:47:09;;;;;;;14.20;4.38;;;6.50;99.90;;;;;;5011918;28;20026;-71
2021/03/18 09:49:38;;;;;;;16.80;4.85;;;6.60;99.90;;;;;;5010881;28;20092;-71
2021/03/18 09:52:07;;;;;;;9.70;4.20;;;6.70;99.90;;;;;;5011302;28;20025;-71
2021/03/18 09:54:34;;;;;;;17.95;4.43;;;6.80;99.90;;;;;;5001619;28;20034;-71
2021/03/18 09:57:02;;;;;;;21.23;5.10;;;7.00;99.90;;;;;;5009270;28;20054;-71
2021/03/18 09:59:29;;;;;;;11.00;3.85;;;7.00;99.90;;;;;;5010411;28;20037;-71
2021/03/18 10:01:55;;;;;;;10.30;4.03;;;7.00;99.90;;;;;;5003362;28;20031;-71
2021/03/18 10:04:21;;;;;;;18.23;4.75;;;7.00;99.90;;;;;;5003973;28;20364;-71
2021/03/18 10:06:56;;;;;;;11.57;4.50;;;7.00;99.90;;;;;;5004003;28;20030;-71
2021/03/18 10:09:33;;;;;;;8.50;4.88;;;7.10;99.90;;;;;;5005353;28;20038;-71
2021/03/18 10:12:00;;;;;;;17.13;5.35;;;7.10;99.90;;;;;;4999058;28;20109;-71
2021/03/18 10:14:31;;;;;;;12.43;4.50;;;7.30;99.90;;;;;;5004446;28;20022;-71
2021/03/18 10:17:05;;;;;;;12.38;4.18;;;7.30;99.90;;;;;;5009515;28;20089;-71
2021/03/18 10:19:33;;;;;;;18.17;5.32;;;7.40;99.90;;;;;;5005763;28;20383;-72
2021/03/18 10:22:00;;;;;;;12.02;5.07;;;7.50;99.90;;;;;;5001512;28;20029;-72
2021/03/18 10:24:26;;;;;;;17.52;5.80;;;7.60;99.90;;;;;;5005502;28;20025;-79
2021/03/18 10:26:52;;;;;;;12.85;5.35;;;7.70;99.90;;;;;;5008252;28;20038;-71
2021/03/18 10:29:18;;;;;;;11.80;6.38;;;7.60;99.90;;;;;;5003657;28;20049;-71
2021/03/18 10:31:44;;;;;;;18.85;5.70;;;7.70;99.90;;;;;;5000707;28;20038;-71
2021/03/18 10:34:26;;;;;;;14.75;4.93;;;7.60;99.90;;;;;;5004062;28;20087;-71
2021/03/18 10:36:52;;;;;;;12.10;5.20;;;7.60;99.90;;;;;;4997393;28;20029;-71
2021/03/18 10:39:23;;;;;;;10.95;4.68;;;7.70;99.90;;;;;;4999825;28;20383;-71
2021/03/18 10:41:53;;;;;;;16.35;6.13;;;7.70;99.90;;;;;;4997662;28;20057;-71
2021/03/18 10:44:20;;;;;;;15.10;5.80;;;7.80;99.90;;;;;;5000791;28;20628;-71
2021/03/18 10:46:46;;;;;;;16.38;5.78;;;7.80;99.90;;;;;;5003480;28;20054;-71
2021/03/18 10:49:15;;;;;;;15.18;5.32;;;7.90;99.90;;;;;;5005049;28;20038;-70
2021/03/18 10:51:45;;;;;;;18.17;6.10;;;7.80;99.90;;;;;;5004416;28;20046;-70
2021/03/18 10:54:19;;;;;;;13.98;5.38;;;7.80;99.90;;;;;;4994498;28;20022;-70
2021/03/18 10:56:45;;;;;;;26.38;6.05;;;7.90;99.90;;;;;;4999764;28;20061;-70
2021/03/18 10:59:16;;;;;;;17.48;5.80;;;7.90;99.90;;;;;;4998076;28;20034;-70
2021/03/18 11:01:41;;;;;;;14.30;6.15;;;7.90;99.90;;;;;;5003444;28;20502;-70
2021/03/18 11:04:08;;;;;;;15.05;6.22;;;8.00;99.90;;;;;;5000236;28;20018;-70
2021/03/18 11:06:48;;;;;;;17.08;5.97;;;8.00;99.90;;;;;;5001514;28;20041;-70
2021/03/18 11:09:15;;;;;;;19.73;5.78;;;8.10;99.90;;;;;;5001539;28;20490;-70
2021/03/18 11:11:52;;;;;;;18.45;6.93;;;8.30;99.90;;;;;;5001063;28;20482;-70
2021/03/18 11:14:17;;;;;;;18.27;6.90;;;8.30;99.90;;;;;;5007615;28;20049;-70
2021/03/18 11:16:43;;;;;;;18.35;6.28;;;8.40;99.90;;;;;;4996426;28;20469;-70
2021/03/18 11:19:14;;;;;;;18.20;6.57;;;8.40;99.90;;;;;;5004438;28;20033;-70
2021/03/18 11:21:43;;;;;;;22.80;7.03;;;8.40;99.90;;;;;;5006550;28;20057;-70
2021/03/18 11:24:11;;;;;;;19.80;6.60;;;8.50;99.90;;;;;;5004825;28;20029;-70
2021/03/18 11:26:40;;;;;;;26.42;6.90;;;8.60;99.90;;;;;;4998324;28;20026;-70
2021/03/18 11:29:15;;;;;;;18.75;6.25;;;8.60;99.90;;;;;;5003480;28;20132;-70
2021/03/18 11:31:44;;;;;;;18.52;6.95;;;8.70;99.90;;;;;;4994382;28;20034;-70
2021/03/18 11:34:21;;;;;;;21.88;5.90;;;8.70;99.90;;;;;;5002002;28;20442;-70
2021/03/18 11:36:50;;;;;;;20.95;7.05;;;8.70;99.90;;;;;;5001346;28;20529;-70
2021/03/18 11:39:17;;;;;;;17.80;7.22;;;8.80;99.90;;;;;;5007313;28;20501;-70
2021/03/18 11:41:43;;;;;;;21.90;7.35;;;8.80;99.90;;;;;;5004747;28;20038;-70
2021/03/18 11:44:09;;;;;;;23.10;6.10;;;8.80;99.90;;;;;;5006506;28;20050;-70
2021/03/18 11:46:35;;;;;;;18.90;6.22;;;8.80;99.90;;;;;;5004799;28;20505;-70
2021/03/18 11:49:01;;;;;;;26.75;6.30;;;8.80;99.90;;;;;;5006724;28;20040;-70
2021/03/18 11:51:27;;;;;;;29.52;6.13;;;8.90;99.90;;;;;;5005562;28;20036;-70
2021/03/18 11:53:53;;;;;;;23.02;6.85;;;8.90;99.90;;;;;;5035209;28;20027;-70
2021/03/18 11:56:20;;;;;;;22.63;5.50;;;8.90;99.90;;;;;;5001214;28;20054;-70
2021/03/18 11:58:46;;;;;;;17.58;5.97;;;8.90;99.90;;;;;;5007785;28;20042;-70
2021/03/18 12:01:12;;;;;;;22.20;5.63;;;8.90;99.90;;;;;;5001940;28;20053;-70
2021/03/18 12:03:37;;;;;;;20.42;5.20;;;8.90;99.90;;;;;;5002262;28;20061;-70
2021/03/18 12:06:03;;;;;;;20.67;5.82;;;8.90;99.90;;;;;;5003136;28;20053;-69
2021/03/18 12:08:29;;;;;;;18.70;5.40;;;8.80;99.90;;;;;;5006771;28;20104;-70
2021/03/18 12:10:56;;;;;;;23.13;5.78;;;8.90;99.90;;;;;;5011734;28;20118;-70
2021/03/18 12:13:22;;;;;;;17.30;5.93;;;8.80;99.90;;;;;;5004431;28;20105;-70
2021/03/18 12:15:47;;;;;;;22.30;5.30;;;8.80;99.90;;;;;;5006737;28;20108;-70
2021/03/18 12:18:13;;;;;;;15.52;5.63;;;8.80;99.90;;;;;;5001760;28;20034;-70
2021/03/18 12:20:39;;;;;;;27.08;6.55;;;8.80;99.90;;;;;;5007413;28;20026;-70
2021/03/18 12:23:04;;;;;;;28.13;5.95;;;8.70;99.90;;;;;;5008033;28;20073;-70
2021/03/18 12:25:30;;;;;;;24.60;5.55;;;8.70;99.90;;;;;;5000702;28;20030;-70
2021/03/18 12:27:56;;;;;;;28.27;6.43;;;8.60;99.90;;;;;;5008367;28;20045;-70
2021/03/18 12:30:23;;;;;;;25.67;6.10;;;8.60;99.90;;;;;;5012127;28;20398;-71
2021/03/18 12:32:49;;;;;;;26.08;7.85;;;8.60;99.90;;;;;;5006379;28;20038;-71
2021/03/18 12:37:48;;;;;;;31.77;7.85;;;8.60;99.90;;;;;;5026206;23;20066;-70
2021/03/18 12:40:15;;;;;;;30.00;6.78;;;8.60;99.90;;;;;;4967261;23;607165;-71
2021/03/18 12:42:41;;;;;;;30.05;7.07;;;8.70;99.90;;;;;;4967149;28;20098;-70
2021/03/18 12:45:10;;;;;;;24.70;6.60;;;8.70;99.90;;;;;;4965432;28;20023;-70
2021/03/18 12:47:35;;;;;;;30.63;6.40;;;8.70;99.90;;;;;;4955130;28;20027;-69
2021/03/18 12:50:03;;;;;;;22.77;6.78;;;8.60;99.90;;;;;;4961472;28;20447;-70
2021/03/18 12:52:29;;;;;;;28.02;8.68;;;8.60;99.90;;;;;;4968438;28;20031;-71
2021/03/18 12:54:55;;;;;;;30.33;8.20;;;8.60;99.90;;;;;;4973761;28;20046;-70
2021/03/18 12:57:20;;;;;;;25.63;10.00;;;8.50;99.90;;;;;;4961888;28;20030;-70
2021/03/18 12:59:46;;;;;;;21.58;8.50;;;8.50;99.90;;;;;;4964995;28;20203;-70